Estación Meteorológica Peña el Pijo (Robertgarden) [ 11/19/17 19:00:53 CET ]

Fecha Hora Presion(HPa) Temp (°C) Humedad % Rocio (°C) Viento ( m/s) Direccion Lluvia 1Hora(mm) Lluvia 24H(mm) LLuvia Total(mm)
2017-Jul-30 01:01:59 1012.900 16.5 42 3.5         1437.96
2017-Jul-30 02:02:03 1012.400 17.7 36 2.3         1437.96
2017-Jul-30 03:01:15 1012.300 19.1 31 1.6         1437.96
2017-Jul-30 04:01:13 1011.900 19.3 31 1.7         1437.96
2017-Jul-30 05:01:14 1011.500 17.2 36 1.9         1437.96
2017-Jul-30 06:01:14 1011.300 15.8 40 2.2         1437.96
2017-Jul-30 07:01:47 1011.200 16.1 45 4.1         1437.96
2017-Jul-30 08:01:56 1011.300 16.1 50 5.7         1437.96
2017-Jul-30 09:01:44 1011.100 22.9 45 10.3         1437.96
2017-Jul-30 10:01:47 1010.800 29.8 34 12.2         1437.96
2017-Jul-30 11:01:30 1010.300 36.3 24 12.3         1437.96
2017-Jul-30 12:01:29 1010.400 36.0 18 7.7         1437.96
2017-Jul-30 13:01:31 1009.700 38.4 15 6.5         1437.96
2017-Jul-30 14:01:21 1009.100 38.6 15 6.6         1437.96
2017-Jul-30 15:01:37 1008.900 39.6 13 5.4         1437.96
2017-Jul-30 16:01:30 1008.600 41.3 12 5.7 0.2 NNE     1437.96
2017-Jul-30 17:01:37 1007.800 41.8 12 6.1         1437.96
2017-Jul-30 18:01:36 1007.800 40.2 12 4.9         1437.96
2017-Jul-30 19:01:54 1007.500 37.6 12 2.9 1.2 NNE     1437.96
2017-Jul-30 20:01:47 1007.500 36.2 13 2.8         1437.96
2017-Jul-30 21:01:41 1007.800 30.0 22 5.8         1437.96
2017-Jul-30 22:01:51 1008.600 26.8 27 6.1         1437.96
2017-Jul-30 23:01:44 1009.200 22.4 35 6.1         1437.96

Temperatura Máxima:41°    Temperatura Mínima:15°
Presión Máxima:1012.900 Hpa    Presión Mínima:1007.500 Hpa


Volver